Joseph, Oregon
Current Conditions -  °F | °C
As of 6:15 PM on Saturday 25 Oct 2014 (Local Time) from KLGD Reporting Station
Clear Clear  
Wind Chill: 18°   Ceiling: Unl
Heat Index: 18°   Visibility: 10mi
Dew Point: -2°   Wind: 18mph
Humidity: 26%   Direction: 170°S
Pressure: 29.6"   Gusts: 24mph
Location:  45.35°N, 117.23°W
Report Text: KLGD 260115Z AUTO 17016G21KT 10SM CLR 18/M02 A2960 RMK AO1
Loading
Personal Weather Stations






























Interactive Weather Map
Tropical Storm Tracking
New forecast layout! Learn more

10-Day Weather Forecast

Advertisements
Track Severe Weather on mobile